Time;durP1;ratioP1;P1;durP2;ratioP2;P2;SDS_P1;SDS_P2;PMS_P1;PMS_P2;Temp;Humidity;BMP_temperature;BMP_pressure;BME280_temperature;BME280_humidity;BME280_pressure;Samples;Min_cycle;Max_cycle;Signal;HPM_P1;HPM_P2
2022/09/21 00:00:44;;;;;;;;;;;21.40;44.00;;;;;;5085824;28;19973;-59
2022/09/21 00:03:11;;;;;;;;;;;21.40;44.00;;;;;;5101857;28;19924;-60
2022/09/21 00:05:37;;;;;;;;;;;21.40;44.00;;;;;;5070361;28;19947;-59
2022/09/21 00:08:04;;;;;;;;;;;21.40;44.00;;;;;;5102713;28;19966;-60
2022/09/21 00:10:33;;;;;;;;;;;21.40;44.00;;;;;;5069173;28;19933;-59
2022/09/21 00:13:01;;;;;;;;;;;21.30;43.90;;;;;;5067277;28;19924;-58
2022/09/21 00:15:28;;;;;;;;;;;21.40;44.00;;;;;;5085521;28;19920;-60
2022/09/21 00:17:55;;;;;;;;;;;21.30;43.90;;;;;;5102279;28;19951;-59
2022/09/21 00:20:23;;;;;;;;;;;21.30;43.90;;;;;;5070110;28;19932;-59
2022/09/21 00:22:50;;;;;;;;;;;21.30;44.00;;;;;;5069836;28;19994;-59
2022/09/21 00:25:16;;;;;;;;;;;21.30;43.90;;;;;;5066924;28;19981;-59
2022/09/21 00:27:50;;;;;;;;;;;21.30;43.90;;;;;;5085731;28;20010;-59
2022/09/21 00:30:16;;;;;;;;;;;21.30;43.90;;;;;;5067325;28;19956;-59
2022/09/21 00:32:43;;;;;;;;;;;21.30;43.90;;;;;;5083826;28;19931;-59
2022/09/21 00:35:10;;;;;;;;;;;21.30;43.90;;;;;;5068160;28;19988;-59
2022/09/21 00:37:36;;;;;;;;;;;21.30;44.00;;;;;;5084915;28;20358;-59
2022/09/21 00:40:03;;;;;;;;;;;21.30;43.90;;;;;;5068026;28;19931;-60
2022/09/21 00:42:30;;;;;;;;;;;21.30;43.90;;;;;;5083392;28;19937;-59
2022/09/21 00:44:58;;;;;;;;;;;21.30;44.00;;;;;;5085144;28;19925;-59
2022/09/21 00:47:26;;;;;;;;;;;21.30;43.90;;;;;;5102265;28;20019;-59
2022/09/21 00:49:54;;;;;;;;;;;21.30;43.90;;;;;;5081048;28;20009;-58
2022/09/21 00:52:21;;;;;;;;;;;21.30;43.90;;;;;;5085500;28;19927;-59
2022/09/21 00:54:49;;;;;;;;;;;21.30;44.00;;;;;;5067176;28;19928;-59
2022/09/21 00:57:15;;;;;;;;;;;21.30;43.90;;;;;;5084568;28;19959;-58
2022/09/21 00:59:42;;;;;;;;;;;21.20;43.80;;;;;;5084191;28;19960;-59
2022/09/21 01:02:10;;;;;;;;;;;21.20;43.80;;;;;;5061636;28;19925;-58
2022/09/21 01:04:37;;;;;;;;;;;21.20;43.80;;;;;;5096389;28;19927;-58
2022/09/21 01:07:05;;;;;;;;;;;21.20;43.80;;;;;;5085243;28;20003;-59
2022/09/21 01:09:32;;;;;;;;;;;21.20;43.80;;;;;;5101374;28;19941;-57
2022/09/21 01:12:02;;;;;;;;;;;21.20;43.80;;;;;;5072873;28;19942;-58
2022/09/21 01:14:37;;;;;;;;;;;21.20;43.80;;;;;;5074566;28;20035;-58
2022/09/21 01:17:04;;;;;;;;;;;21.20;43.80;;;;;;5088049;28;19959;-59
2022/09/21 01:19:40;;;;;;;;;;;21.20;43.80;;;;;;5072739;28;19920;-58
2022/09/21 01:22:07;;;;;;;;;;;21.20;43.70;;;;;;5085375;28;20344;-59
2022/09/21 01:24:37;;;;;;;;;;;21.20;43.70;;;;;;5089552;28;19980;-58
2022/09/21 01:27:28;;;;;;;;;;;21.20;43.60;;;;;;5107747;28;19955;-58
2022/09/21 01:29:57;;;;;;;;;;;21.20;43.70;;;;;;5052306;28;19999;-59
2022/09/21 01:32:24;;;;;;;;;;;21.20;43.60;;;;;;5070636;28;19932;-59
2022/09/21 01:34:53;;;;;;;;;;;21.20;43.70;;;;;;5104129;28;19947;-59
2022/09/21 01:37:20;;;;;;;;;;;21.20;43.60;;;;;;5088879;28;19920;-58
2022/09/21 01:39:47;;;;;;;;;;;21.20;43.70;;;;;;5104104;28;20011;-59
2022/09/21 01:42:14;;;;;;;;;;;21.20;43.60;;;;;;5072903;28;19942;-58
2022/09/21 01:44:41;;;;;;;;;;;21.20;43.60;;;;;;5072736;28;19977;-58
2022/09/21 01:47:11;;;;;;;;;;;21.20;43.60;;;;;;5104395;28;19928;-58
2022/09/21 01:49:38;;;;;;;;;;;21.20;43.60;;;;;;5088354;28;19928;-59
2022/09/21 01:52:10;;;;;;;;;;;21.20;43.60;;;;;;5088533;28;19920;-59
2022/09/21 01:54:37;;;;;;;;;;;21.20;43.60;;;;;;5104778;28;19927;-58
2022/09/21 01:57:06;;;;;;;;;;;21.10;43.50;;;;;;5087972;28;19951;-59
2022/09/21 01:59:34;;;;;;;;;;;21.20;43.60;;;;;;5086768;28;19928;-60
2022/09/21 02:02:03;;;;;;;;;;;21.10;43.50;;;;;;5105583;28;19927;-58
2022/09/21 02:04:31;;;;;;;;;;;21.10;43.40;;;;;;5085300;28;19967;-59
2022/09/21 02:06:57;;;;;;;;;;;21.10;43.40;;;;;;5071804;28;20238;-59
2022/09/21 02:09:24;;;;;;;;;;;21.10;43.40;;;;;;5105078;28;19966;-59
2022/09/21 02:11:51;;;;;;;;;;;21.10;43.40;;;;;;5072657;28;19956;-59
2022/09/21 02:14:19;;;;;;;;;;;21.10;43.40;;;;;;5086831;28;19920;-59
2022/09/21 02:16:47;;;;;;;;;;;21.10;43.40;;;;;;5071097;28;20008;-58
2022/09/21 02:19:15;;;;;;;;;;;21.10;43.40;;;;;;5072400;28;19985;-59
2022/09/21 02:21:47;;;;;;;;;;;21.10;43.30;;;;;;5087112;28;20023;-58
2022/09/21 02:24:21;;;;;;;;;;;21.10;43.30;;;;;;5103193;28;19971;-59
2022/09/21 02:26:49;;;;;;;;;;;21.10;43.30;;;;;;5104660;28;20396;-59
2022/09/21 02:29:17;;;;;;;;;;;21.10;43.30;;;;;;5086378;28;19921;-58
2022/09/21 02:31:46;;;;;;;;;;;21.10;43.30;;;;;;5103552;28;19956;-59
2022/09/21 02:34:16;;;;;;;;;;;21.10;43.30;;;;;;5087520;28;19925;-58
2022/09/21 02:36:44;;;;;;;;;;;21.10;43.20;;;;;;5087674;28;19950;-59
2022/09/21 02:39:14;;;;;;;;;;;21.10;43.20;;;;;;5103220;28;19955;-59
2022/09/21 02:41:44;;;;;;;;;;;21.00;43.10;;;;;;5084109;28;19950;-58
2022/09/21 02:44:11;;;;;;;;;;;21.10;43.20;;;;;;5087570;28;19924;-59
2022/09/21 02:46:38;;;;;;;;;;;21.00;43.20;;;;;;5087314;28;19952;-59
2022/09/21 02:49:08;;;;;;;;;;;21.10;43.20;;;;;;5085965;28;19927;-59
2022/09/21 02:51:36;;;;;;;;;;;21.10;43.30;;;;;;5070463;28;19924;-59
2022/09/21 02:54:03;;;;;;;;;;;21.10;43.20;;;;;;5104224;28;20019;-58
2022/09/21 02:56:31;;;;;;;;;;;21.00;43.20;;;;;;5070958;28;19974;-58
2022/09/21 02:58:59;;;;;;;;;;;21.00;43.20;;;;;;5087183;28;19976;-60
2022/09/21 03:01:25;;;;;;;;;;;21.00;43.10;;;;;;5087132;28;19967;-59
2022/09/21 03:03:52;;;;;;;;;;;21.00;43.20;;;;;;5067471;28;20306;-59
2022/09/21 03:06:19;;;;;;;;;;;21.00;43.10;;;;;;5068866;28;19967;-58
2022/09/21 03:08:46;;;;;;;;;;;21.00;43.10;;;;;;5085637;28;19975;-59
2022/09/21 03:11:16;;;;;;;;;;;21.00;43.20;;;;;;5086986;28;19920;-58
2022/09/21 03:13:44;;;;;;;;;;;21.00;43.10;;;;;;5101587;28;19928;-59
2022/09/21 03:16:11;;;;;;;;;;;21.00;43.10;;;;;;5086961;28;19925;-59
2022/09/21 03:18:38;;;;;;;;;;;21.00;43.10;;;;;;5103387;28;19955;-59
2022/09/21 03:21:04;;;;;;;;;;;21.00;43.10;;;;;;5101870;28;19935;-59
2022/09/21 03:23:31;;;;;;;;;;;21.00;43.10;;;;;;5068339;28;20032;-59
2022/09/21 03:25:58;;;;;;;;;;;21.00;43.10;;;;;;5065930;28;20362;-60
2022/09/21 03:28:24;;;;;;;;;;;20.90;43.00;;;;;;5103465;28;19966;-60
2022/09/21 03:30:52;;;;;;;;;;;21.00;43.10;;;;;;5059607;28;19920;-59
2022/09/21 03:33:19;;;;;;;;;;;21.00;43.10;;;;;;5082927;28;19920;-59
2022/09/21 03:35:47;;;;;;;;;;;20.90;43.00;;;;;;5103139;28;19967;-59
2022/09/21 03:38:15;;;;;;;;;;;20.90;42.90;;;;;;5085610;28;20518;-60
2022/09/21 03:40:44;;;;;;;;;;;20.90;42.90;;;;;;5085705;28;20340;-59
2022/09/21 03:43:11;;;;;;;;;;;20.90;42.90;;;;;;5066718;28;19921;-59
2022/09/21 03:45:39;;;;;;;;;;;20.90;42.90;;;;;;5069504;28;19927;-59
2022/09/21 03:48:08;;;;;;;;;;;20.90;42.90;;;;;;5103501;28;20076;-59
2022/09/21 03:50:35;;;;;;;;;;;20.90;42.90;;;;;;5086191;28;20015;-59
2022/09/21 03:53:01;;;;;;;;;;;20.90;42.90;;;;;;5069851;28;19929;-59
2022/09/21 03:55:28;;;;;;;;;;;20.90;42.80;;;;;;5070511;28;19974;-60
2022/09/21 03:57:55;;;;;;;;;;;20.90;42.80;;;;;;5086501;28;20035;-60
2022/09/21 04:00:22;;;;;;;;;;;20.90;42.80;;;;;;5067092;28;20433;-59
2022/09/21 04:02:48;;;;;;;;;;;20.90;42.80;;;;;;5069245;28;19927;-58
2022/09/21 04:05:17;;;;;;;;;;;20.80;42.70;;;;;;5085882;28;19968;-59
2022/09/21 04:07:44;;;;;;;;;;;20.80;42.70;;;;;;5100948;28;19920;-60
2022/09/21 04:10:12;;;;;;;;;;;20.80;42.60;;;;;;5085980;28;19943;-60
2022/09/21 04:12:42;;;;;;;;;;;20.80;42.60;;;;;;5084681;28;19927;-60
2022/09/21 04:15:10;;;;;;;;;;;20.90;42.70;;;;;;5070220;28;20023;-59
2022/09/21 04:17:37;;;;;;;;;;;20.90;42.70;;;;;;5067419;28;19920;-60
2022/09/21 04:20:04;;;;;;;;;;;20.80;42.60;;;;;;5084882;28;20003;-59
2022/09/21 04:22:32;;;;;;;;;;;20.90;42.70;;;;;;5085666;28;19943;-60
2022/09/21 04:25:00;;;;;;;;;;;20.90;42.70;;;;;;5102517;28;19975;-60
2022/09/21 04:27:27;;;;;;;;;;;20.90;42.70;;;;;;5067467;28;19931;-60
2022/09/21 04:29:54;;;;;;;;;;;20.90;42.70;;;;;;5084604;28;20310;-59
2022/09/21 04:32:20;;;;;;;;;;;20.80;42.50;;;;;;5085626;28;19962;-60
2022/09/21 04:34:47;;;;;;;;;;;20.80;42.50;;;;;;5101057;28;19920;-59
2022/09/21 04:37:14;;;;;;;;;;;20.80;42.50;;;;;;5084182;28;19951;-59
2022/09/21 04:39:42;;;;;;;;;;;20.80;42.50;;;;;;5066741;28;19966;-59
2022/09/21 04:42:09;;;;;;;;;;;20.80;42.60;;;;;;5099489;28;19965;-60
2022/09/21 04:44:35;;;;;;;;;;;20.80;42.60;;;;;;5067782;28;20118;-59
2022/09/21 04:47:03;;;;;;;;;;;20.80;42.50;;;;;;5085507;28;19924;-60
2022/09/21 04:49:29;;;;;;;;;;;20.80;42.60;;;;;;5100859;28;19925;-60
2022/09/21 04:51:56;;;;;;;;;;;20.80;42.60;;;;;;5065129;28;19930;-59
2022/09/21 04:54:23;;;;;;;;;;;20.80;42.60;;;;;;5084114;28;20023;-60
2022/09/21 04:56:52;;;;;;;;;;;20.80;42.50;;;;;;5051341;28;21839;-60
2022/09/21 04:59:19;;;;;;;;;;;20.80;42.60;;;;;;5100821;28;19968;-59
2022/09/21 05:01:46;;;;;;;;;;;20.80;42.50;;;;;;5095496;28;19927;-60
2022/09/21 05:04:13;;;;;;;;;;;20.80;42.50;;;;;;5085273;28;19920;-60
2022/09/21 05:06:39;;;;;;;;;;;20.80;42.50;;;;;;5069378;28;19975;-60
2022/09/21 05:11:50;;;;;;;;;;;20.70;42.40;;;;;;5065810;28;20332;-59
2022/09/21 05:14:18;;;;;;;;;;;20.70;42.40;;;;;;5085237;28;19927;-60
2022/09/21 05:16:48;;;;;;;;;;;20.70;42.30;;;;;;5101984;28;20019;-59
2022/09/21 05:19:15;;;;;;;;;;;20.70;42.30;;;;;;5083435;28;19924;-59
2022/09/21 05:21:41;;;;;;;;;;;20.70;42.30;;;;;;5084943;28;20330;-60
2022/09/21 05:24:17;;;;;;;;;;;20.70;42.30;;;;;;5096555;28;19935;-61
2022/09/21 05:26:44;;;;;;;;;;;20.70;42.30;;;;;;5064885;28;19924;-60
2022/09/21 05:29:11;;;;;;;;;;;20.70;42.30;;;;;;5084808;28;20366;-59
2022/09/21 05:31:40;;;;;;;;;;;20.70;42.20;;;;;;5100450;28;19970;-59
2022/09/21 05:34:11;;;;;;;;;;;20.70;42.20;;;;;;5069334;28;19972;-60
2022/09/21 05:36:40;;;;;;;;;;;20.70;42.30;;;;;;5069378;28;19932;-59
2022/09/21 05:39:07;;;;;;;;;;;20.70;42.30;;;;;;5067224;28;20362;-60
2022/09/21 05:41:34;;;;;;;;;;;20.70;42.30;;;;;;5100842;28;20007;-61
2022/09/21 05:44:01;;;;;;;;;;;20.70;42.30;;;;;;5082998;28;19924;-59
2022/09/21 05:46:32;;;;;;;;;;;20.70;42.30;;;;;;5081722;28;20012;-62
2022/09/21 05:49:00;;;;;;;;;;;20.70;42.30;;;;;;5084758;28;20281;-60
2022/09/21 05:51:28;;;;;;;;;;;20.70;42.30;;;;;;5068015;28;19925;-59
2022/09/21 05:53:56;;;;;;;;;;;20.70;42.30;;;;;;5099371;28;20010;-60
2022/09/21 05:56:35;;;;;;;;;;;20.70;42.30;;;;;;5064748;28;19936;-60
2022/09/21 05:59:03;;;;;;;;;;;20.70;42.30;;;;;;5088624;28;19920;-59
2022/09/21 06:01:35;;;;;;;;;;;20.70;42.30;;;;;;5088470;28;19921;-61
2022/09/21 06:04:04;;;;;;;;;;;20.70;42.30;;;;;;5085701;28;19966;-59
2022/09/21 06:06:30;;;;;;;;;;;20.70;42.30;;;;;;5086786;28;19925;-60
2022/09/21 06:08:57;;;;;;;;;;;20.60;42.20;;;;;;5072606;28;19932;-59
2022/09/21 06:11:24;;;;;;;;;;;20.70;42.30;;;;;;5105311;28;19924;-60
2022/09/21 06:13:50;;;;;;;;;;;20.70;42.40;;;;;;5087126;28;19955;-60
2022/09/21 06:16:17;;;;;;;;;;;20.60;42.30;;;;;;5104922;28;19994;-59
2022/09/21 06:18:44;;;;;;;;;;;20.60;42.30;;;;;;5105108;28;19921;-59
2022/09/21 06:21:12;;;;;;;;;;;20.60;42.30;;;;;;5070601;28;19925;-59
2022/09/21 06:23:39;;;;;;;;;;;20.60;42.40;;;;;;5087414;28;20352;-58
2022/09/21 06:26:05;;;;;;;;;;;20.60;42.40;;;;;;5104762;28;19943;-59
2022/09/21 06:28:32;;;;;;;;;;;20.60;42.40;;;;;;5066790;28;19920;-58
2022/09/21 06:30:58;;;;;;;;;;;20.60;42.50;;;;;;5104567;28;19956;-59
2022/09/21 06:33:25;;;;;;;;;;;20.60;42.50;;;;;;5103559;28;19952;-60
2022/09/21 06:35:52;;;;;;;;;;;20.60;42.60;;;;;;5067165;28;19986;-59
2022/09/21 06:38:20;;;;;;;;;;;20.60;42.60;;;;;;5104359;28;20304;-59
2022/09/21 06:40:47;;;;;;;;;;;20.60;42.70;;;;;;5068440;28;19990;-59
2022/09/21 06:43:14;;;;;;;;;;;20.60;42.70;;;;;;5084369;28;20001;-62
2022/09/21 06:45:41;;;;;;;;;;;20.60;42.80;;;;;;5087751;28;19927;-60
2022/09/21 06:48:08;;;;;;;;;;;20.70;43.00;;;;;;5087559;28;19939;-62
2022/09/21 06:50:34;;;;;;;;;;;20.60;42.90;;;;;;5087105;28;19920;-60
2022/09/21 06:53:01;;;;;;;;;;;20.70;43.10;;;;;;5101708;28;19928;-61
2022/09/21 06:55:29;;;;;;;;;;;20.70;43.10;;;;;;5070352;28;20328;-61
2022/09/21 06:58:00;;;;;;;;;;;20.70;43.10;;;;;;5079660;28;19975;-60
2022/09/21 07:00:26;;;;;;;;;;;20.70;43.20;;;;;;5102695;28;19970;-62
2022/09/21 07:02:53;;;;;;;;;;;20.70;43.20;;;;;;5081932;28;19948;-60
2022/09/21 07:05:20;;;;;;;;;;;20.70;43.20;;;;;;5104326;28;19927;-62
2022/09/21 07:07:47;;;;;;;;;;;20.70;43.20;;;;;;5083578;28;19932;-61
2022/09/21 07:10:14;;;;;;;;;;;20.70;43.30;;;;;;5069051;28;19932;-61
2022/09/21 07:12:42;;;;;;;;;;;20.70;43.30;;;;;;5082063;28;19920;-60
2022/09/21 07:15:10;;;;;;;;;;;20.70;43.40;;;;;;5086841;28;19920;-59
2022/09/21 07:17:37;;;;;;;;;;;20.70;43.40;;;;;;5100265;28;19950;-60
2022/09/21 07:20:05;;;;;;;;;;;20.70;43.50;;;;;;5069683;28;19928;-59
2022/09/21 07:22:32;;;;;;;;;;;20.70;43.50;;;;;;5070436;28;19932;-59
2022/09/21 07:24:59;;;;;;;;;;;20.70;43.60;;;;;;5066238;28;19924;-59
2022/09/21 07:27:26;;;;;;;;;;;20.70;43.60;;;;;;5071074;28;19924;-60
2022/09/21 07:29:54;;;;;;;;;;;20.70;43.60;;;;;;5068658;28;19933;-60
2022/09/21 07:32:20;;;;;;;;;;;20.70;43.70;;;;;;5086660;28;19925;-59
2022/09/21 07:34:47;;;;;;;;;;;20.70;43.70;;;;;;5103082;28;19933;-61
2022/09/21 07:37:15;;;;;;;;;;;20.70;43.70;;;;;;5069505;28;19989;-59
2022/09/21 07:39:41;;;;;;;;;;;20.70;43.80;;;;;;5069783;28;19924;-60
2022/09/21 07:42:08;;;;;;;;;;;20.70;43.80;;;;;;5086069;28;20024;-60
2022/09/21 07:44:34;;;;;;;;;;;20.70;43.80;;;;;;5070063;28;19956;-59
2022/09/21 07:47:03;;;;;;;;;;;20.70;43.90;;;;;;5069483;28;20031;-59
2022/09/21 07:49:29;;;;;;;;;;;20.70;43.90;;;;;;5069666;28;19920;-59
2022/09/21 07:51:56;;;;;;;;;;;20.70;44.00;;;;;;5070791;28;19975;-59
2022/09/21 07:54:23;;;;;;;;;;;20.70;44.00;;;;;;5070065;28;19965;-58
2022/09/21 07:59:31;;;;;;;;;;;20.70;44.10;;;;;;5068856;28;19925;-60
2022/09/21 08:01:58;;;;;;;;;;;20.70;44.10;;;;;;5068288;28;19927;-60
2022/09/21 08:04:26;;;;;;;;;;;20.70;44.20;;;;;;5085976;28;19921;-59
2022/09/21 08:06:53;;;;;;;;;;;20.70;44.20;;;;;;5101450;28;19975;-59
2022/09/21 08:09:20;;;;;;;;;;;20.70;44.20;;;;;;5102765;28;19966;-59
2022/09/21 08:11:46;;;;;;;;;;;20.80;44.40;;;;;;5083403;28;19955;-59
2022/09/21 08:14:18;;;;;;;;;;;20.80;44.40;;;;;;5068983;28;19966;-60
2022/09/21 08:16:44;;;;;;;;;;;20.80;44.50;;;;;;5066405;28;19951;-60
2022/09/21 08:19:11;;;;;;;;;;;20.70;44.40;;;;;;5077288;28;20024;-60
2022/09/21 08:21:39;;;;;;;;;;;20.80;44.50;;;;;;5080762;28;20003;-59
2022/09/21 08:24:06;;;;;;;;;;;20.80;44.50;;;;;;5085843;28;19927;-59
2022/09/21 08:26:33;;;;;;;;;;;20.80;44.60;;;;;;5067494;28;19921;-59
2022/09/21 08:29:00;;;;;;;;;;;20.80;44.60;;;;;;5083811;28;20350;-59
2022/09/21 08:31:27;;;;;;;;;;;20.80;44.70;;;;;;5053565;28;20004;-60
2022/09/21 08:33:55;;;;;;;;;;;20.80;44.80;;;;;;5050616;28;19932;-59
2022/09/21 08:36:22;;;;;;;;;;;20.80;44.80;;;;;;5067555;28;19920;-60
2022/09/21 08:38:50;;;;;;;;;;;20.80;44.80;;;;;;5054852;28;19924;-59
2022/09/21 08:41:18;;;;;;;;;;;20.80;44.90;;;;;;5101497;28;19959;-61
2022/09/21 08:43:45;;;;;;;;;;;20.80;44.90;;;;;;5085600;28;19927;-59
2022/09/21 08:46:12;;;;;;;;;;;20.80;45.00;;;;;;5079129;28;19928;-59
2022/09/21 08:48:40;;;;;;;;;;;20.80;45.10;;;;;;5069908;28;19928;-59
2022/09/21 08:51:07;;;;;;;;;;;20.80;45.10;;;;;;5102858;28;19921;-59
2022/09/21 08:53:34;;;;;;;;;;;20.80;45.10;;;;;;5083556;28;19921;-59
2022/09/21 08:56:02;;;;;;;;;;;20.80;45.10;;;;;;5102343;28;19920;-58
2022/09/21 08:58:30;;;;;;;;;;;20.80;45.20;;;;;;5069799;28;19956;-59
2022/09/21 09:01:05;;;;;;;;;;;20.80;45.30;;;;;;5069525;28;19964;-59
2022/09/21 09:03:37;;;;;;;;;;;20.80;45.40;;;;;;5069124;28;19939;-60
2022/09/21 09:06:05;;;;;;;;;;;20.80;45.40;;;;;;5082298;28;20398;-61
2022/09/21 09:08:45;;;;;;;;;;;20.80;45.40;;;;;;5083187;28;19920;-59
2022/09/21 09:11:16;;;;;;;;;;;20.90;45.40;;;;;;5067229;28;20318;-60
2022/09/21 09:13:47;;;;;;;;;;;20.80;45.40;;;;;;5084167;28;19944;-59
2022/09/21 09:16:15;;;;;;;;;;;20.90;46.10;;;;;;5068887;28;19964;-61
2022/09/21 09:18:43;;;;;;;;;;;20.90;45.50;;;;;;5069487;28;19967;-60
2022/09/21 09:21:11;;;;;;;;;;;20.90;45.50;;;;;;5068160;28;19924;-61
2022/09/21 09:23:37;;;;;;;;;;;20.90;45.60;;;;;;5062597;28;19931;-60
2022/09/21 09:26:05;;;;;;;;;;;20.90;45.50;;;;;;5055982;28;19979;-60
2022/09/21 09:28:35;;;;;;;;;;;20.90;45.60;;;;;;5067890;28;19920;-59
2022/09/21 09:31:04;;;;;;;;;;;20.90;45.60;;;;;;5102800;28;19927;-59
2022/09/21 09:33:32;;;;;;;;;;;20.90;45.50;;;;;;5085478;28;19920;-60
2022/09/21 09:36:00;;;;;;;;;;;20.80;45.40;;;;;;5089070;28;20133;-59
2022/09/21 09:38:27;;;;;;;;;;;20.80;45.40;;;;;;5069465;28;20019;-59
2022/09/21 09:41:03;;;;;;;;;;;20.80;45.30;;;;;;5101771;28;19964;-60
2022/09/21 09:43:33;;;;;;;;;;;20.80;45.40;;;;;;5068955;28;19986;-58
2022/09/21 09:46:03;;;;;;;;;;;20.80;45.40;;;;;;5087092;28;19920;-58
2022/09/21 09:48:36;;;;;;;;;;;20.80;45.40;;;;;;5088669;28;19926;-59
2022/09/21 09:51:03;;;;;;;;;;;20.80;45.40;;;;;;5085827;28;20019;-58
2022/09/21 09:53:32;;;;;;;;;;;20.70;45.30;;;;;;5088503;28;19966;-59
2022/09/21 09:55:59;;;;;;;;;;;20.70;45.30;;;;;;5092004;28;19920;-57
2022/09/21 09:58:29;;;;;;;;;;;20.70;45.30;;;;;;5072487;28;19948;-58
2022/09/21 10:00:56;;;;;;;;;;;20.70;45.40;;;;;;5080073;28;19950;-58
2022/09/21 10:03:25;;;;;;;;;;;20.70;45.30;;;;;;5069287;28;19982;-59
2022/09/21 10:05:51;;;;;;;;;;;20.70;45.20;;;;;;5098380;28;19944;-58
2022/09/21 10:08:29;;;;;;;;;;;20.70;45.20;;;;;;5064596;28;19924;-59
2022/09/21 10:10:55;;;;;;;;;;;20.70;45.10;;;;;;5102294;27;20182;-59
2022/09/21 10:13:25;;;;;;;;;;;20.70;45.10;;;;;;5086025;28;19921;-60
2022/09/21 10:15:52;;;;;;;;;;;20.70;45.10;;;;;;5066265;28;19971;-58
2022/09/21 10:18:20;;;;;;;;;;;20.70;44.90;;;;;;5084630;28;19927;-59
2022/09/21 10:20:58;;;;;;;;;;;20.70;44.70;;;;;;5085134;28;19924;-58
2022/09/21 10:23:25;;;;;;;;;;;20.70;44.50;;;;;;5068589;28;20007;-58
2022/09/21 10:26:01;;;;;;;;;;;20.70;44.50;;;;;;5065288;28;19921;-60
2022/09/21 10:28:28;;;;;;;;;;;20.70;44.50;;;;;;5066075;28;20366;-59
2022/09/21 10:31:08;;;;;;;;;;;20.70;44.50;;;;;;5085511;28;19920;-58
2022/09/21 10:33:35;;;;;;;;;;;20.70;44.50;;;;;;5066715;28;19924;-58
2022/09/21 10:36:03;;;;;;;;;;;20.60;44.40;;;;;;5102519;28;19920;-58
2022/09/21 10:38:31;;;;;;;;;;;20.70;44.50;;;;;;5101046;28;19963;-58
2022/09/21 10:40:57;;;;;;;;;;;20.60;44.10;;;;;;5083191;28;19975;-58
2022/09/21 10:43:25;;;;;;;;;;;20.70;43.90;;;;;;5067582;28;19944;-58
2022/09/21 10:45:52;;;;;;;;;;;20.70;44.30;;;;;;5104307;28;20015;-58
2022/09/21 10:48:20;;;;;;;;;;;20.70;43.70;;;;;;5070326;28;19950;-59
2022/09/21 10:50:48;;;;;;;;;;;20.70;43.70;;;;;;5079540;28;19974;-59
2022/09/21 10:53:19;;;;;;;;;;;20.70;43.40;;;;;;5067967;28;20262;-59
2022/09/21 10:55:47;;;;;;;;;;;20.70;43.50;;;;;;5068816;28;19958;-59
2022/09/21 10:58:13;;;;;;;;;;;20.70;43.50;;;;;;5101303;28;19927;-60
2022/09/21 11:00:41;;;;;;;;;;;20.70;43.50;;;;;;5086781;28;19927;-60
2022/09/21 11:03:28;;;;;;;;;;;20.70;43.40;;;;;;5084943;28;20011;-59
2022/09/21 11:05:55;;;;;;;;;;;20.70;43.30;;;;;;5083414;28;20320;-59
2022/09/21 11:08:23;;;;;;;;;;;20.70;43.40;;;;;;5065973;28;20354;-60
2022/09/21 11:11:01;;;;;;;;;;;20.70;43.30;;;;;;5066254;28;19924;-59
2022/09/21 11:13:29;;;;;;;;;;;20.70;43.40;;;;;;5080686;28;19928;-59
2022/09/21 11:15:57;;;;;;;;;;;20.80;43.60;;;;;;5066482;28;19976;-60
2022/09/21 11:18:26;;;;;;;;;;;20.80;43.60;;;;;;5068804;28;19927;-60
2022/09/21 11:20:53;;;;;;;;;;;20.80;43.40;;;;;;5085118;28;19931;-59
2022/09/21 11:23:36;;;;;;;;;;;20.80;43.30;;;;;;5103593;28;19925;-60
2022/09/21 11:26:04;;;;;;;;;;;20.80;43.50;;;;;;5068871;28;19978;-60
2022/09/21 11:28:32;;;;;;;;;;;20.80;43.60;;;;;;5099236;28;19920;-59
2022/09/21 11:31:23;;;;;;;;;;;20.90;43.60;;;;;;5084959;28;19955;-59
2022/09/21 11:33:55;;;;;;;;;;;20.90;43.70;;;;;;5056913;28;19932;-59
2022/09/21 11:36:23;;;;;;;;;;;20.90;43.50;;;;;;5097017;28;19921;-57
2022/09/21 11:38:55;;;;;;;;;;;20.90;43.50;;;;;;5100147;28;20025;-57
2022/09/21 11:41:40;;;;;;;;;;;20.90;43.50;;;;;;5102640;28;19977;-59
2022/09/21 11:44:21;;;;;;;;;;;20.90;43.50;;;;;;5035969;28;20011;-62
2022/09/21 11:46:50;;;;;;;;;;;21.00;43.60;;;;;;5081909;28;20285;-60
2022/09/21 11:49:21;;;;;;;;;;;21.00;43.60;;;;;;5085665;28;19973;-59
2022/09/21 11:51:53;;;;;;;;;;;21.00;43.50;;;;;;5070274;28;19974;-59
2022/09/21 11:54:35;;;;;;;;;;;21.00;43.60;;;;;;5067387;28;20368;-59
2022/09/21 11:57:04;;;;;;;;;;;21.00;43.60;;;;;;5067124;28;19955;-59
2022/09/21 11:59:38;;;;;;;;;;;21.00;43.60;;;;;;5066827;28;19920;-59
2022/09/21 12:02:15;;;;;;;;;;;21.10;43.80;;;;;;5100576;28;19967;-60
2022/09/21 12:04:43;;;;;;;;;;;21.10;43.70;;;;;;5066134;28;19993;-60
2022/09/21 12:07:16;;;;;;;;;;;21.10;43.60;;;;;;5066183;28;19924;-59
2022/09/21 12:09:46;;;;;;;;;;;21.10;43.60;;;;;;5068954;28;19920;-60
2022/09/21 12:12:16;;;;;;;;;;;21.10;43.50;;;;;;5080461;28;20362;-59
2022/09/21 12:14:45;;;;;;;;;;;21.10;43.20;;;;;;5065038;28;19964;-59
2022/09/21 12:17:13;;;;;;;;;;;21.10;43.30;;;;;;5080872;28;20212;-59
2022/09/21 12:19:41;;;;;;;;;;;21.10;43.00;;;;;;5100132;28;19966;-59
2022/09/21 12:22:09;;;;;;;;;;;21.10;42.70;;;;;;5095790;28;19925;-60
2022/09/21 12:24:37;;;;;;;;;;;21.10;42.80;;;;;;5083313;28;19924;-62
2022/09/21 12:27:05;;;;;;;;;;;21.10;42.90;;;;;;5085180;28;20014;-59
2022/09/21 12:29:36;;;;;;;;;;;21.10;42.90;;;;;;5099804;28;20005;-60
2022/09/21 12:32:04;;;;;;;;;;;21.10;42.60;;;;;;5085411;28;20019;-61
2022/09/21 12:34:33;;;;;;;;;;;21.10;43.00;;;;;;5099862;28;20433;-60
2022/09/21 12:37:00;;;;;;;;;;;21.10;42.90;;;;;;5065321;28;19921;-58
2022/09/21 12:39:28;;;;;;;;;;;21.10;42.50;;;;;;5069589;28;20032;-59
2022/09/21 12:41:55;;;;;;;;;;;21.10;42.80;;;;;;5066358;28;19921;-59
2022/09/21 12:44:23;;;;;;;;;;;21.10;42.10;;;;;;5080671;28;20073;-59
2022/09/21 12:46:55;;;;;;;;;;;21.10;42.20;;;;;;5080236;28;19924;-59
2022/09/21 12:49:23;;;;;;;;;;;21.10;42.30;;;;;;5097943;28;19974;-62
2022/09/21 12:51:53;;;;;;;;;;;21.10;42.80;;;;;;5081050;28;20015;-61
2022/09/21 12:54:23;;;;;;;;;;;21.10;40.30;;;;;;5063682;28;19932;-61
2022/09/21 12:56:51;;;;;;;;;;;21.10;40.40;;;;;;5079042;28;19924;-61
2022/09/21 12:59:23;;;;;;;;;;;21.00;41.10;;;;;;5066144;28;20374;-61
2022/09/21 13:01:52;;;;;;;;;;;21.00;41.30;;;;;;5060883;28;20016;-62
2022/09/21 13:04:27;;;;;;;;;;;20.90;42.10;;;;;;5099684;28;19920;-61
2022/09/21 13:07:00;;;;;;;;;;;20.90;41.70;;;;;;5079109;28;19920;-59
2022/09/21 13:09:27;;;;;;;;;;;20.80;40.60;;;;;;5066697;28;19927;-59
2022/09/21 13:11:55;;;;;;;;;;;20.80;40.70;;;;;;5099773;28;19920;-60
2022/09/21 13:14:23;;;;;;;;;;;20.70;41.20;;;;;;5092608;28;19920;-61
2022/09/21 13:16:56;;;;;;;;;;;20.80;41.60;;;;;;5078760;28;19931;-59
2022/09/21 13:19:23;;;;;;;;;;;20.80;41.70;;;;;;5099239;28;20074;-59
2022/09/21 13:22:13;;;;;;;;;;;20.80;41.90;;;;;;5065655;28;19928;-58
2022/09/21 13:24:41;;;;;;;;;;;20.80;42.00;;;;;;5083221;28;19964;-58
2022/09/21 13:27:07;;;;;;;;;;;20.80;42.20;;;;;;5096968;28;20247;-59
2022/09/21 13:29:34;;;;;;;;;;;20.80;42.30;;;;;;5067872;28;20296;-59
2022/09/21 13:32:03;;;;;;;;;;;20.80;42.30;;;;;;5081820;28;19970;-59
2022/09/21 13:34:31;;;;;;;;;;;20.90;42.50;;;;;;5082215;28;19935;-59
2022/09/21 13:37:22;;;;;;;;;;;21.00;42.70;;;;;;5082369;28;19955;-59
2022/09/21 13:39:50;;;;;;;;;;;21.00;42.60;;;;;;5046396;28;20235;-59
2022/09/21 13:42:35;;;;;;;;;;;21.00;42.70;;;;;;5062917;28;20017;-59
2022/09/21 13:45:03;;;;;;;;;;;21.00;42.50;;;;;;5081327;28;20016;-59
2022/09/21 13:47:31;;;;;;;;;;;21.00;42.60;;;;;;5096358;28;19924;-61
2022/09/21 13:50:00;;;;;;;;;;;21.00;42.40;;;;;;5099420;28;19966;-59
2022/09/21 13:52:31;;;;;;;;;;;21.10;42.30;;;;;;5059895;28;19927;-59
2022/09/21 13:54:58;;;;;;;;;;;21.10;42.50;;;;;;5068910;28;19956;-59
2022/09/21 13:57:27;;;;;;;;;;;21.10;42.50;;;;;;5101050;28;20003;-60
2022/09/21 14:00:01;;;;;;;;;;;21.10;42.50;;;;;;5101521;28;19921;-59
2022/09/21 14:02:31;;;;;;;;;;;21.10;42.50;;;;;;5084640;28;19924;-59
2022/09/21 14:05:00;;;;;;;;;;;21.10;42.50;;;;;;5099194;28;19924;-60
2022/09/21 14:07:28;;;;;;;;;;;21.10;42.60;;;;;;5081499;28;19925;-59
2022/09/21 14:09:56;;;;;;;;;;;21.20;42.60;;;;;;5096748;28;19982;-60
2022/09/21 14:12:23;;;;;;;;;;;21.20;42.60;;;;;;5068494;28;19932;-58
2022/09/21 14:15:06;;;;;;;;;;;21.20;42.60;;;;;;5096102;28;19928;-59
2022/09/21 14:17:34;;;;;;;;;;;21.20;42.60;;;;;;5065176;28;19920;-60
2022/09/21 14:20:03;;;;;;;;;;;21.20;41.50;;;;;;5067522;28;19921;-59
2022/09/21 14:22:36;;;;;;;;;;;21.20;41.50;;;;;;5067927;28;19987;-59
2022/09/21 14:25:24;;;;;;;;;;;21.20;41.70;;;;;;5085145;28;19921;-59
2022/09/21 14:27:51;;;;;;;;;;;21.20;41.50;;;;;;5051588;28;19928;-59
2022/09/21 14:30:19;;;;;;;;;;;21.20;41.60;;;;;;5100405;28;19920;-59